D/T METAR WX W/DIR W/SPE G/SPE TEMP DEWP
23/05/19 12:50 EGDY 231150Z 22009KT 9999 FEW042 SCT200 19/09 Q1016 BLU NOSIG SW (220°) 10.4mph 19°C 9°C
23/05/19 11:50 EGDY 231050Z 23004KT 9999 FEW035 SCT200 19/09 Q1016 BLU NOSIG SW (230°) 4.6mph 19°C 9°C
23/05/19 10:50 EGDY 230950Z 20001KT 9999 FEW030 SCT200 18/08 Q1016 BLU NOSIG SSW (200°) 1.2mph 18°C 8°C
23/05/19 09:50 EGDY 230850Z 18001KT CAVOK 17/07 Q1017 BLU NOSIG S (180°) 1.2mph 17°C 7°C
23/05/19 08:50 EGDY 230750Z 07002KT CAVOK 14/08 Q1017 BLU NOSIG ENE (70°) 2.3mph 14°C 8°C
23/05/19 07:50 EGDY 230650Z 07002KT 9999 FEW030 SCT200 10/07 Q1017 BLU NOSIG ENE (70°) 2.3mph 10°C 7°C
23/05/19 06:50 EGDY 230550Z 08001KT 9999 FEW030 SCT200 07/06 Q1017 BLU NOSIG E (80°) 1.2mph 7°C 6°C
23/05/19 05:50 EGDY 230450Z 13002KT 9999 MIFG FEW030 SCT100 06/05 Q1017 BLU MIFG SE (130°) 2.3mph 6°C 5°C
23/05/19 04:50 EGDY 230350Z 00000KT 9999 MIFG FEW025 SCT100 06/05 Q1017 BLU MIFG N (0°) 6°C 5°C
23/05/19 03:50 EGDY 230250Z 00000KT 9999 FEW040 SCT100 07/06 Q1017 BLU N (0°) 7°C 6°C
23/05/19 02:50 EGDY 230150Z 04001KT 9999 FEW040 07/05 Q1018 BLU NE (40°) 1.2mph 7°C 5°C
23/05/19 01:50 EGDY 230050Z 11002KT CAVOK 08/05 Q1018 BLU NOSIG ESE (110°) 2.3mph 8°C 5°C
23/05/19 00:50 EGDY 222350Z 11002KT CAVOK 08/06 Q1018 BLU NOSIG ESE (110°) 2.3mph 8°C 6°C
22/05/19 23:50 EGDY 222250Z 13004KT CAVOK 09/05 Q1018 BLU NOSIG SE (130°) 4.6mph 9°C 5°C
22/05/19 22:50 EGDY 222150Z 20003KT CAVOK 11/07 Q1019 BLU NOSIG SSW (200°) 3.5mph 11°C 7°C
22/05/19 21:50 EGDY 222050Z 20005KT CAVOK 12/07 Q1019 BLU NOSIG SSW (200°) 5.8mph 12°C 7°C
22/05/19 20:50 EGDY 221950Z 18007KT CAVOK 14/07 Q1018 BLU NOSIG S (180°) 8.1mph 14°C 7°C
22/05/19 19:50 EGDY 221850Z 20005KT CAVOK 15/07 Q1018 BLU NOSIG SSW (200°) 5.8mph 15°C 7°C
22/05/19 18:50 EGDY 221750Z 21008KT CAVOK 17/06 Q1018 BLU NOSIG SSW (210°) 9.2mph 17°C 6°C
22/05/19 17:50 EGDY 221650Z 20009KT CAVOK 18/06 Q1018 BLU NOSIG SSW (200°) 10.4mph 18°C 6°C
22/05/19 16:50 EGDY 221550Z 20008KT CAVOK 19/06 Q1019 BLU NOSIG SSW (200°) 9.2mph 19°C 6°C
22/05/19 15:50 EGDY 221450Z 21008KT CAVOK 20/06 Q1019 BLU NOSIG SSW (210°) 9.2mph 20°C 6°C
22/05/19 14:50 EGDY 221350Z 21008KT CAVOK 20/07 Q1019 BLU NOSIG SSW (210°) 9.2mph 20°C 7°C
22/05/19 13:50 EGDY 221250Z 20008KT CAVOK 19/06 Q1019 BLU NOSIG SSW (200°) 9.2mph 19°C 6°C
22/05/19 12:50 EGDY 221150Z 35002KT 9999 FEW040 BKN180 19/07 Q1020 BLU NOSIG N (350°) 2.3mph 19°C 7°C
22/05/19 11:50 EGDY 221050Z 28005KT 9999 FEW030 BKN200 18/06 Q1020 BLU NOSIG W (280°) 5.8mph 18°C 6°C
22/05/19 10:50 EGDY 220950Z 19002KT 9999 FEW030 SCT200 17/08 Q1020 BLU NOSIG S (190°) 2.3mph 17°C 8°C
22/05/19 09:50 EGDY 220850Z 14002KT 9999 FEW020 SCT200 15/07 Q1020 BLU NOSIG SE (140°) 2.3mph 15°C 7°C
22/05/19 08:50 EGDY 220750Z 05002KT CAVOK 14/07 Q1021 BLU NOSIG NE (50°) 2.3mph 14°C 7°C
22/05/19 07:50 EGDY 220650Z 04002KT CAVOK 10/07 Q1020 BLU NOSIG NE (40°) 2.3mph 10°C 7°C
22/05/19 06:50 EGDY 220550Z 13001KT 9999 VCFG FEW100 SCT200 07/06 Q1020 BLU NOSIG VCFG SE (130°) 1.2mph 7°C 6°C
22/05/19 05:50 EGDY 220450Z 09001KT 9999 MIFG FEW100 SCT200 05/04 Q1020 BLU NOSIG MIFG E (90°) 1.2mph 5°C 4°C
22/05/19 04:50 EGDY 220350Z 12002KT 9999 MIFG FEW100 SCT200 05/04 Q1020 BLU MIFG ESE (120°) 2.3mph 5°C 4°C
22/05/19 03:50 EGDY 220250Z 11001KT CAVOK 06/05 Q1020 BLU ESE (110°) 1.2mph 6°C 5°C
22/05/19 02:50 EGDY 220150Z 13001KT CAVOK 06/05 Q1021 BLU SE (130°) 1.2mph 6°C 5°C
22/05/19 01:50 EGDY 220050Z 24001KT CAVOK 07/06 Q1021 BLU WSW (240°) 1.2mph 7°C 6°C
22/05/19 00:50 EGDY 212350Z 25001KT 9999 FEW040 08/06 Q1020 BLU WSW (250°) 1.2mph 8°C 6°C
21/05/19 23:50 EGDY 212250Z 26001KT 9999 FEW040 09/06 Q1020 BLU NOSIG W (260°) 1.2mph 9°C 6°C
21/05/19 22:50 EGDY 212150Z 28004KT CAVOK 12/07 Q1020 BLU NOSIG W (280°) 4.6mph 12°C 7°C
21/05/19 21:50 EGDY 212050Z 29006KT CAVOK 13/07 Q1020 BLU NOSIG WNW (290°) 6.9mph 13°C 7°C
21/05/19 20:50 EGDY 211950Z 31006KT CAVOK 14/07 Q1020 BLU NOSIG NW (310°) 6.9mph 14°C 7°C
21/05/19 19:50 EGDY 211850Z 32009KT CAVOK 16/07 Q1019 BLU NOSIG NW (320°) 10.4mph 16°C 7°C
21/05/19 18:50 EGDY 211750Z 32010KT CAVOK 17/08 Q1019 BLU NOSIG NW (320°) 11.5mph 17°C 8°C
21/05/19 17:50 EGDY 211650Z 31009KT CAVOK 19/07 Q1019 BLU NOSIG NW (310°) 10.4mph 19°C 7°C
21/05/19 16:50 EGDY 211550Z 30007KT CAVOK 20/06 Q1019 BLU NOSIG WNW (300°) 8.1mph 20°C 6°C
21/05/19 15:50 EGDY 211450Z 29005KT 9999 SCT030 19/05 Q1019 BLU NOSIG WNW (290°) 5.8mph 19°C 5°C
21/05/19 14:50 EGDY 211350Z 32005KT 9999 SCT030 18/05 Q1019 BLU NOSIG NW (320°) 5.8mph 18°C 5°C
21/05/19 13:50 EGDY 211250Z 31006KT 9999 SCT030 18/07 Q1019 BLU NOSIG NW (310°) 6.9mph 18°C 7°C